Terminal Aerodrome Forecast
Issued by NWS Tampa Bay Area, FL

Home | Current Version | Previous Version | Text Only | Print | Product List | Glossary On
Versions: 1 2 3 4 5 6 7 8 9 10 11 12 13
000
FTUS42 KTBW 011737
TAFSRQ
TAF
KSRQ 011737Z 0118/0218 29010KT P6SM FEW200
     FM020300 VRB04KT P6SM FEW200
     FM021400 08004KT P6SM FEW040=

USA.gov is the U.S. government's official web portal to all federal, state and local government web resources and services.